createdAt,value
2023-01-19T00:00:27.711Z,99842.78
2023-01-19T00:02:54.869Z,99842.19
2023-01-19T00:05:21.465Z,99851.03
2023-01-19T00:07:48.130Z,99848.19
2023-01-19T00:10:14.626Z,99849.81
2023-01-19T00:12:40.973Z,99846.31
2023-01-19T00:15:08.197Z,99842.63
2023-01-19T00:17:35.052Z,99844.06
2023-01-19T00:20:01.496Z,99837.91
2023-01-19T00:22:27.900Z,99834.81
2023-01-19T00:24:54.294Z,99841.41
2023-01-19T00:27:20.754Z,99842.00
2023-01-19T00:29:47.155Z,99844.47
2023-01-19T00:32:13.598Z,99846.53
2023-01-19T00:34:42.647Z,99844.06
2023-01-19T00:37:10.112Z,99839.53
2023-01-19T00:39:36.658Z,99844.88
2023-01-19T00:42:22.110Z,99849.00
2023-01-19T00:44:48.702Z,99845.28
2023-01-19T00:47:15.089Z,99845.50
2023-01-19T00:49:41.539Z,99844.69
2023-01-19T00:52:08.096Z,99835.84
2023-01-19T00:54:34.472Z,99837.06
2023-01-19T00:57:01.324Z,99838.09
2023-01-19T00:59:27.769Z,99830.50
2023-01-19T01:01:54.248Z,99826.59
2023-01-19T01:04:20.689Z,99832.97
2023-01-19T01:06:47.212Z,99834.63
2023-01-19T01:09:13.789Z,99831.31
2023-01-19T01:11:43.657Z,99831.53
2023-01-19T01:14:12.185Z,99833.19
2023-01-19T01:16:39.515Z,99836.25
2023-01-19T01:19:06.165Z,99841.38
2023-01-19T01:21:34.654Z,99837.91
2023-01-19T01:24:01.777Z,99837.47
2023-01-19T01:26:28.371Z,99835.81
2023-01-19T01:28:54.787Z,99843.66
2023-01-19T01:31:21.185Z,99848.59
2023-01-19T01:33:47.599Z,99845.47
2023-01-19T01:36:14.195Z,99845.72
2023-01-19T01:38:41.558Z,99846.94
2023-01-19T01:41:09.042Z,99854.72
2023-01-19T01:43:50.858Z,99860.28
2023-01-19T01:46:18.070Z,99865.44
2023-01-19T01:49:00.516Z,99867.50
2023-01-19T01:51:29.934Z,99882.72
2023-01-19T01:54:14.735Z,99867.25
2023-01-19T01:56:46.963Z,99865.63
2023-01-19T01:59:25.745Z,99867.47
2023-01-19T02:02:15.970Z,99867.06
2023-01-19T02:04:47.745Z,99868.66
2023-01-19T02:07:40.012Z,99868.44
2023-01-19T02:10:25.519Z,99865.16
2023-01-19T02:13:10.752Z,99855.72
2023-01-19T02:15:37.105Z,99858.63
2023-01-19T02:18:03.595Z,99854.31
2023-01-19T02:20:31.714Z,99854.50
2023-01-19T02:23:03.770Z,99855.56
2023-01-19T02:25:30.693Z,99862.34
2023-01-19T02:27:57.362Z,99849.78
2023-01-19T02:30:24.152Z,99846.47
2023-01-19T02:32:50.677Z,99845.25
2023-01-19T02:35:17.384Z,99842.19
2023-01-19T02:37:44.977Z,99840.31
2023-01-19T02:40:15.053Z,99844.41
2023-01-19T02:42:53.014Z,99846.50
2023-01-19T02:45:21.891Z,99845.25
2023-01-19T02:47:51.541Z,99845.66
2023-01-19T02:50:50.534Z,99838.66
2023-01-19T02:53:45.481Z,99836.81
2023-01-19T02:56:30.233Z,99838.69
2023-01-19T02:59:33.631Z,99847.72
2023-01-19T03:02:16.432Z,99853.91
2023-01-19T03:05:00.272Z,99859.84
2023-01-19T03:08:04.411Z,99850.56
2023-01-19T03:11:05.142Z,99851.81
2023-01-19T03:13:52.856Z,99844.41
2023-01-19T03:16:21.808Z,99847.72
2023-01-19T03:18:55.724Z,99848.13
2023-01-19T03:21:27.475Z,99857.97
2023-01-19T03:23:58.089Z,99858.16
2023-01-19T03:26:29.755Z,99856.94
2023-01-19T03:29:00.446Z,99855.28
2023-01-19T03:31:31.922Z,99849.34
2023-01-19T03:34:03.941Z,99852.22
2023-01-19T03:36:34.725Z,99860.44
2023-01-19T03:39:04.384Z,99853.84
2023-01-19T03:41:34.203Z,99845.63
2023-01-19T03:44:01.677Z,99847.88
2023-01-19T03:46:28.682Z,99851.81
2023-01-19T03:48:55.186Z,99851.81
2023-01-19T03:51:21.977Z,99855.91
2023-01-19T03:53:49.987Z,99859.19
2023-01-19T03:56:24.578Z,99860.41
2023-01-19T03:58:51.650Z,99861.03
2023-01-19T04:01:22.720Z,99863.47
2023-01-19T04:03:50.445Z,99859.16
2023-01-19T04:06:17.234Z,99853.19
2023-01-19T04:08:43.662Z,99858.31
2023-01-19T04:11:10.281Z,99857.03
2023-01-19T04:13:36.898Z,99850.66
2023-01-19T04:16:04.578Z,99856.63
2023-01-19T04:18:34.704Z,99850.84
2023-01-19T04:21:03.982Z,99846.50
2023-01-19T04:23:30.759Z,99853.13
2023-01-19T04:26:02.864Z,99848.53
2023-01-19T04:28:29.865Z,99848.72
2023-01-19T04:30:56.260Z,99845.41
2023-01-19T04:33:22.990Z,99845.84
2023-01-19T04:35:52.301Z,99830.19
2023-01-19T04:38:20.551Z,99845.84
2023-01-19T04:40:48.479Z,99843.97
2023-01-19T04:43:15.224Z,99840.91
2023-01-19T04:45:41.808Z,99842.31
2023-01-19T04:48:08.304Z,99846.19
2023-01-19T04:50:34.697Z,99855.06
2023-01-19T04:53:02.357Z,99859.59
2023-01-19T04:55:28.910Z,99858.53
2023-01-19T04:57:55.552Z,99861.81
2023-01-19T05:00:22.233Z,99858.94
2023-01-19T05:02:48.814Z,99863.84
2023-01-19T05:05:15.487Z,99868.34
2023-01-19T05:07:42.798Z,99860.91
2023-01-19T05:10:09.855Z,99871.59
2023-01-19T05:12:36.499Z,99872.47
2023-01-19T05:15:03.483Z,99866.25
2023-01-19T05:17:30.269Z,99861.00
2023-01-19T05:19:56.667Z,99861.47
2023-01-19T05:22:23.043Z,99866.44
2023-01-19T05:24:49.537Z,99869.34
2023-01-19T05:27:16.016Z,99871.41
2023-01-19T05:29:42.408Z,99875.72
2023-01-19T05:32:08.926Z,99867.28
2023-01-19T05:34:35.296Z,99870.56
2023-01-19T05:37:01.683Z,99867.28
2023-01-19T05:39:28.601Z,99874.66
2023-01-19T05:41:54.965Z,99878.75
2023-01-19T05:44:22.215Z,99885.41
2023-01-19T05:46:48.627Z,99888.69
2023-01-19T05:49:15.116Z,99890.31
2023-01-19T05:51:45.235Z,99882.94
2023-01-19T05:54:17.281Z,99876.78
2023-01-19T05:56:43.815Z,99876.38
2023-01-19T05:59:10.857Z,99883.38
2023-01-19T06:01:39.902Z,99877.22
2023-01-19T06:04:06.665Z,99883.44
2023-01-19T06:06:33.024Z,99879.50
2023-01-19T06:08:59.433Z,99882.59
2023-01-19T06:11:26.085Z,99884.25
2023-01-19T06:13:52.891Z,99878.09
2023-01-19T06:16:19.473Z,99875.22
2023-01-19T06:18:52.361Z,99881.81
2023-01-19T06:21:18.753Z,99878.09
2023-01-19T06:23:45.146Z,99882.22
2023-01-19T06:26:11.589Z,99882.84
2023-01-19T06:28:37.934Z,99885.94
2023-01-19T06:31:04.492Z,99887.16
2023-01-19T06:33:31.437Z,99898.28
2023-01-19T06:35:57.807Z,99900.94
2023-01-19T06:38:24.275Z,99900.88
2023-01-19T06:40:58.541Z,99895.34
2023-01-19T06:43:26.234Z,99903.63
2023-01-19T06:45:52.917Z,99898.72
2023-01-19T06:48:19.984Z,99911.47
2023-01-19T06:50:47.248Z,99918.66
2023-01-19T06:53:16.659Z,99914.16
2023-01-19T06:55:46.514Z,99923.00
2023-01-19T06:58:13.543Z,99929.38
2023-01-19T07:00:40.336Z,99921.97
2023-01-19T07:03:21.349Z,99929.56
2023-01-19T07:05:51.564Z,99930.38
2023-01-19T07:08:18.268Z,99928.72
2023-01-19T07:11:25.948Z,99928.50
2023-01-19T07:13:31.758Z,99937.78
2023-01-19T07:15:58.233Z,99942.94
2023-01-19T07:18:24.575Z,99949.34
2023-01-19T07:20:51.992Z,99945.63
2023-01-19T07:23:18.381Z,99945.22
2023-01-19T07:25:46.285Z,99955.50
2023-01-19T07:28:15.666Z,99957.56
2023-01-19T07:30:43.871Z,99958.41
2023-01-19T07:33:10.233Z,99958.41
2023-01-19T07:35:36.565Z,99961.69
2023-01-19T07:38:03.396Z,99968.06
2023-01-19T07:40:29.908Z,99965.81
2023-01-19T07:42:56.293Z,99964.56
2023-01-19T07:45:22.770Z,99979.41
2023-01-19T07:47:49.908Z,99974.25
2023-01-19T07:50:17.625Z,99982.31
2023-01-19T07:52:44.696Z,99979.63
2023-01-19T07:55:11.067Z,99974.28
2023-01-19T07:57:37.493Z,99988.03
2023-01-19T08:00:05.020Z,99991.13
2023-01-19T08:02:33.986Z,99990.09
2023-01-19T08:05:00.341Z,99991.34
2023-01-19T08:07:26.849Z,99994.63
2023-01-19T08:09:53.366Z,100000.16
2023-01-19T08:12:19.849Z,100005.34
2023-01-19T08:14:46.328Z,100008.63
2023-01-19T08:17:13.564Z,100013.13
2023-01-19T08:19:41.598Z,100009.84
2023-01-19T08:22:08.166Z,100014.75
2023-01-19T08:24:34.541Z,100009.19
2023-01-19T08:27:02.390Z,100013.53
2023-01-19T08:29:32.077Z,100019.09
2023-01-19T08:32:00.114Z,100018.44
2023-01-19T08:34:27.139Z,100023.41
2023-01-19T08:36:54.018Z,100030.59
2023-01-19T08:39:20.485Z,100036.97
2023-01-19T08:41:46.885Z,100040.28
2023-01-19T08:44:13.309Z,100038.19
2023-01-19T08:46:39.698Z,100048.06
2023-01-19T08:49:06.152Z,100053.44
2023-01-19T08:51:32.894Z,100053.84
2023-01-19T08:53:59.296Z,100054.28
2023-01-19T08:56:25.754Z,100057.56
2023-01-19T08:59:07.803Z,100056.75
2023-01-19T09:01:36.971Z,100054.28
2023-01-19T09:04:03.593Z,100050.53
2023-01-19T09:06:29.994Z,100058.59
2023-01-19T09:08:57.508Z,100059.03
2023-01-19T09:11:23.898Z,100063.34
2023-01-19T09:13:50.573Z,100068.09
2023-01-19T09:16:16.988Z,100073.63
2023-01-19T09:18:45.033Z,100074.44
2023-01-19T09:21:11.761Z,100068.25
2023-01-19T09:23:38.227Z,100068.28
2023-01-19T09:26:05.888Z,100072.59
2023-01-19T09:28:32.460Z,100072.41
2023-01-19T09:30:59.550Z,100078.13
2023-01-19T09:33:35.628Z,100081.41
2023-01-19T09:36:02.292Z,100080.16
2023-01-19T09:38:32.557Z,100087.41
2023-01-19T09:41:00.325Z,100085.13
2023-01-19T09:43:41.399Z,100090.91
2023-01-19T09:46:30.142Z,100082.69
2023-01-19T09:48:59.653Z,100085.56
2023-01-19T09:51:28.869Z,100090.06
2023-01-19T09:54:14.523Z,100096.66
2023-01-19T09:56:42.358Z,100096.66
2023-01-19T09:59:29.865Z,100100.34
2023-01-19T10:02:02.295Z,100099.13
2023-01-19T10:04:41.939Z,100102.47
2023-01-19T10:07:34.695Z,100100.97
2023-01-19T10:10:20.757Z,100106.94
2023-01-19T10:13:15.277Z,100106.53
2023-01-19T10:15:47.912Z,100109.41
2023-01-19T10:18:36.802Z,100112.28
2023-01-19T10:21:11.008Z,100114.34
2023-01-19T10:23:52.183Z,100115.38
2023-01-19T10:26:23.906Z,100107.09
2023-01-19T10:28:55.700Z,100112.47
2023-01-19T10:31:24.233Z,100118.44
2023-01-19T10:33:52.202Z,100115.97
2023-01-19T10:36:24.319Z,100120.91
2023-01-19T10:38:51.900Z,100120.94
2023-01-19T10:41:24.339Z,100114.53
2023-01-19T10:43:59.484Z,100124.41
2023-01-19T10:46:45.562Z,100117.19
2023-01-19T10:49:37.845Z,100120.88
2023-01-19T10:52:08.027Z,100126.91
2023-01-19T10:54:37.287Z,100122.34
2023-01-19T10:57:08.043Z,100116.13
2023-01-19T10:59:46.544Z,100114.66
2023-01-19T11:02:49.272Z,100116.72
2023-01-19T11:05:27.896Z,100120.44
2023-01-19T11:07:54.324Z,100132.34
2023-01-19T11:10:29.104Z,100123.88
2023-01-19T11:13:12.406Z,100129.03
2023-01-19T11:15:44.214Z,100128.59
2023-01-19T11:18:30.522Z,100126.50
2023-01-19T11:21:02.130Z,100133.69
2023-01-19T11:23:32.492Z,100128.97
2023-01-19T11:26:01.554Z,100133.94
2023-01-19T11:28:35.577Z,100125.22
2023-01-19T11:31:15.152Z,100134.31
2023-01-19T11:33:49.049Z,100138.66
2023-01-19T11:36:20.978Z,100141.69
2023-01-19T11:38:52.864Z,100128.66
2023-01-19T11:41:27.826Z,100135.84
2023-01-19T11:44:17.283Z,100135.56
2023-01-19T11:46:47.985Z,100132.06
2023-01-19T11:49:27.328Z,100142.00
2023-01-19T11:52:04.494Z,100133.91
2023-01-19T11:54:37.074Z,100136.38
2023-01-19T11:57:11.743Z,100136.53
2023-01-19T11:59:38.203Z,100137.31
2023-01-19T12:02:16.572Z,100133.13
2023-01-19T12:04:44.511Z,100129.38
2023-01-19T12:07:13.305Z,100139.69
2023-01-19T12:09:45.447Z,100131.38
2023-01-19T12:12:27.336Z,100129.28
2023-01-19T12:15:05.031Z,100135.44
2023-01-19T12:17:57.822Z,100139.03
2023-01-19T12:20:24.086Z,100132.56
2023-01-19T12:23:18.286Z,100136.22
2023-01-19T12:26:01.561Z,100131.66
2023-01-19T12:28:33.768Z,100126.50
2023-01-19T12:31:01.699Z,100129.97
2023-01-19T12:33:28.912Z,100139.22
2023-01-19T12:36:00.732Z,100132.66
2023-01-19T12:38:35.293Z,100131.66
2023-01-19T12:41:22.053Z,100136.97
2023-01-19T12:44:09.350Z,100137.03
2023-01-19T12:46:38.188Z,100127.72
2023-01-19T12:49:26.271Z,100136.53
2023-01-19T12:52:11.842Z,100138.34
2023-01-19T12:54:43.417Z,100140.81
2023-01-19T12:57:24.706Z,100137.31
2023-01-19T13:00:07.695Z,100147.22
2023-01-19T13:02:46.231Z,100137.31
2023-01-19T13:05:21.840Z,100145.97
2023-01-19T13:08:06.651Z,100140.16
2023-01-19T13:11:09.562Z,100140.75
2023-01-19T13:13:38.182Z,100140.31
2023-01-19T13:16:20.200Z,100143.31
2023-01-19T13:18:49.779Z,100141.09
2023-01-19T13:21:35.342Z,100140.31
2023-01-19T13:24:07.611Z,100142.59
2023-01-19T13:26:38.560Z,100149.38
2023-01-19T13:29:13.993Z,100143.00
2023-01-19T13:31:42.985Z,100156.75
2023-01-19T13:34:17.050Z,100158.53
2023-01-19T13:36:46.410Z,100159.13
2023-01-19T13:39:20.164Z,100160.03
2023-01-19T13:41:47.921Z,100163.31
2023-01-19T13:44:25.573Z,100162.09
2023-01-19T13:46:53.905Z,100167.03
2023-01-19T13:49:23.046Z,100166.13
2023-01-19T13:52:04.798Z,100158.38
2023-01-19T13:54:31.441Z,100162.22
2023-01-19T13:56:57.984Z,100168.09
2023-01-19T13:59:24.385Z,100170.16
2023-01-19T14:01:51.677Z,100168.91
2023-01-19T14:04:28.683Z,100171.31
2023-01-19T14:07:04.811Z,100171.03
2023-01-19T14:09:31.942Z,100172.97
2023-01-19T14:12:06.495Z,100167.41
2023-01-19T14:14:33.278Z,100169.81
2023-01-19T14:16:59.978Z,100173.28
2023-01-19T14:19:26.450Z,100178.56
2023-01-19T14:22:03.963Z,100175.88
2023-01-19T14:24:33.146Z,100176.34
2023-01-19T14:27:23.021Z,100179.63
2023-01-19T14:29:53.499Z,100180.00
2023-01-19T14:32:22.902Z,100184.13
2023-01-19T14:35:09.836Z,100188.81
2023-01-19T14:37:38.129Z,100183.13
2023-01-19T14:40:21.607Z,100183.56
2023-01-19T14:42:57.424Z,100192.03
2023-01-19T14:45:30.297Z,100190.63
2023-01-19T14:48:05.160Z,100194.97
2023-01-19T14:50:37.854Z,100197.69
2023-01-19T14:53:18.165Z,100200.19
2023-01-19T14:55:51.172Z,100202.25
2023-01-19T14:58:20.302Z,100213.91
2023-01-19T15:00:48.886Z,100208.22
2023-01-19T15:03:15.991Z,100214.81
2023-01-19T15:05:46.827Z,100216.41
2023-01-19T15:08:25.457Z,100218.66
2023-01-19T15:10:51.991Z,100223.84
2023-01-19T15:13:21.919Z,100227.94
2023-01-19T15:15:49.934Z,100223.84
2023-01-19T15:18:27.656Z,100230.09
2023-01-19T15:20:55.161Z,100233.41
2023-01-19T15:23:21.535Z,100237.16
2023-01-19T15:25:48.772Z,100239.97
2023-01-19T15:28:19.451Z,100242.25
2023-01-19T15:30:46.102Z,100239.59
2023-01-19T15:33:19.556Z,100237.41
2023-01-19T15:35:45.907Z,100237.22
2023-01-19T15:38:12.301Z,100230.38
2023-01-19T15:40:38.830Z,100238.44
2023-01-19T15:43:05.476Z,100238.38
2023-01-19T15:45:48.378Z,100233.19
2023-01-19T15:48:14.779Z,100240.84
2023-01-19T15:50:43.662Z,100238.75
2023-01-19T15:53:14.428Z,100242.84
2023-01-19T15:55:40.966Z,100238.69
2023-01-19T15:58:07.299Z,100247.56
2023-01-19T16:00:34.926Z,100249.88
2023-01-19T16:03:02.259Z,100250.31
2023-01-19T16:05:41.993Z,100251.34
2023-01-19T16:08:09.191Z,100249.09
2023-01-19T16:10:35.616Z,100249.88
2023-01-19T16:13:03.823Z,100259.25
2023-01-19T16:15:30.362Z,100260.06
2023-01-19T16:17:56.683Z,100260.72
2023-01-19T16:20:23.116Z,100257.81
2023-01-19T16:22:49.602Z,100266.91
2023-01-19T16:25:15.988Z,100264.84
2023-01-19T16:27:42.397Z,100271.03
2023-01-19T16:30:12.246Z,100267.78
2023-01-19T16:32:38.844Z,100268.22
2023-01-19T16:35:05.801Z,100271.09
2023-01-19T16:37:32.204Z,100270.47
2023-01-19T16:39:58.629Z,100280.16
2023-01-19T16:42:25.355Z,100276.94
2023-01-19T16:44:51.783Z,100287.22
2023-01-19T16:47:18.265Z,100282.22
2023-01-19T16:49:44.618Z,100290.09
2023-01-19T16:52:11.057Z,100297.97
2023-01-19T16:54:39.350Z,100290.53
2023-01-19T16:57:05.857Z,100293.84
2023-01-19T16:59:32.494Z,100296.91
2023-01-19T17:01:59.149Z,100293.41
2023-01-19T17:04:27.055Z,100300.06
2023-01-19T17:06:54.675Z,100303.34
2023-01-19T17:09:21.303Z,100308.50
2023-01-19T17:11:47.938Z,100307.03
2023-01-19T17:14:17.285Z,100313.25
2023-01-19T17:16:44.157Z,100309.13
2023-01-19T17:19:14.806Z,100304.81
2023-01-19T17:21:41.192Z,100309.97
2023-01-19T17:24:07.643Z,100313.06
2023-01-19T17:26:34.052Z,100317.84
2023-01-19T17:29:02.073Z,100312.00
2023-01-19T17:31:44.394Z,100316.56
2023-01-19T17:34:10.796Z,100320.28
2023-01-19T17:36:37.951Z,100319.66
2023-01-19T17:39:06.931Z,100325.44
2023-01-19T17:41:35.345Z,100330.19
2023-01-19T17:44:03.876Z,100328.34
2023-01-19T17:46:31.136Z,100329.53
2023-01-19T17:49:00.288Z,100323.81
2023-01-19T17:51:27.698Z,100340.94
2023-01-19T17:53:55.030Z,100337.59
2023-01-19T17:56:27.352Z,100333.91
2023-01-19T17:58:53.993Z,100337.19
2023-01-19T18:01:22.352Z,100342.56
2023-01-19T18:03:49.010Z,100332.84
2023-01-19T18:06:15.756Z,100331.56
2023-01-19T18:08:43.993Z,100342.56
2023-01-19T18:11:10.789Z,100342.31
2023-01-19T18:13:37.997Z,100335.72
2023-01-19T18:16:08.263Z,100336.75
2023-01-19T18:18:35.479Z,100342.53
2023-01-19T18:21:04.084Z,100337.59
2023-01-19T18:23:30.521Z,100333.44
2023-01-19T18:26:05.453Z,100339.22
2023-01-19T18:28:32.635Z,100339.19
2023-01-19T18:30:59.483Z,100343.78
2023-01-19T18:33:27.704Z,100345.00
2023-01-19T18:35:55.204Z,100345.25
2023-01-19T18:38:21.668Z,100348.34
2023-01-19T18:40:48.293Z,100353.13
2023-01-19T18:43:15.082Z,100343.59
2023-01-19T18:45:42.037Z,100347.94
2023-01-19T18:48:14.478Z,100351.66
2023-01-19T18:50:40.922Z,100349.63
2023-01-19T18:53:07.329Z,100351.72
2023-01-19T18:55:33.789Z,100352.97
2023-01-19T18:58:00.436Z,100353.16
2023-01-19T19:00:26.917Z,100352.75
2023-01-19T19:02:55.562Z,100345.97
2023-01-19T19:05:21.970Z,100354.69
2023-01-19T19:07:48.526Z,100354.50
2023-01-19T19:10:15.542Z,100358.03
2023-01-19T19:12:41.960Z,100355.50
2023-01-19T19:15:09.113Z,100362.53
2023-01-19T19:17:35.736Z,100363.16
2023-01-19T19:20:02.749Z,100365.44
2023-01-19T19:22:29.143Z,100368.75
2023-01-19T19:24:55.477Z,100368.75
2023-01-19T19:27:21.803Z,100369.38
2023-01-19T19:29:48.687Z,100368.31
2023-01-19T19:32:20.222Z,100365.47
2023-01-19T19:34:53.185Z,100370.84
2023-01-19T19:37:19.948Z,100372.72
2023-01-19T19:39:47.537Z,100373.72
2023-01-19T19:42:13.929Z,100369.59
2023-01-19T19:44:40.406Z,100368.75
2023-01-19T19:47:06.896Z,100371.03
2023-01-19T19:49:33.453Z,100376.66
2023-01-19T19:52:00.005Z,100379.34
2023-01-19T19:54:26.386Z,100379.16
2023-01-19T19:56:53.683Z,100385.13
2023-01-19T19:59:31.534Z,100387.41
2023-01-19T20:01:57.968Z,100383.25
2023-01-19T20:04:25.281Z,100383.25
2023-01-19T20:06:51.695Z,100389.00
2023-01-19T20:09:18.074Z,100395.81
2023-01-19T20:11:46.602Z,100400.81
2023-01-19T20:14:15.995Z,100396.69
2023-01-19T20:16:42.895Z,100397.28
2023-01-19T20:19:09.576Z,100401.63
2023-01-19T20:21:37.597Z,100403.91
2023-01-19T20:24:06.988Z,100403.50
2023-01-19T20:26:35.926Z,100405.38
2023-01-19T20:29:06.747Z,100398.56
2023-01-19T20:31:40.073Z,100410.53
2023-01-19T20:34:09.887Z,100410.94
2023-01-19T20:36:36.781Z,100416.75
2023-01-19T20:39:08.425Z,100411.81
2023-01-19T20:41:42.781Z,100415.94
2023-01-19T20:44:18.761Z,100417.56
2023-01-19T20:46:45.629Z,100419.63
2023-01-19T20:49:12.268Z,100425.44
2023-01-19T20:51:43.224Z,100429.97
2023-01-19T20:54:11.184Z,100423.38
2023-01-19T20:56:38.206Z,100438.25
2023-01-19T20:59:04.546Z,100432.47
2023-01-19T21:01:31.248Z,100441.56
2023-01-19T21:03:57.705Z,100447.31
2023-01-19T21:06:24.864Z,100441.75
2023-01-19T21:08:51.790Z,100448.97
2023-01-19T21:11:20.814Z,100458.06
2023-01-19T21:13:48.205Z,100464.47
2023-01-19T21:16:15.477Z,100460.97
2023-01-19T21:18:41.894Z,100466.34
2023-01-19T21:21:14.955Z,100462.19
2023-01-19T21:23:47.604Z,100464.69
2023-01-19T21:26:14.578Z,100469.63
2023-01-19T21:28:41.491Z,100473.34
2023-01-19T21:31:10.133Z,100470.44
2023-01-19T21:33:36.472Z,100475.19
2023-01-19T21:36:03.080Z,100479.56
2023-01-19T21:38:30.069Z,100487.38
2023-01-19T21:40:57.580Z,100495.22
2023-01-19T21:43:25.488Z,100499.34
2023-01-19T21:45:52.002Z,100502.63
2023-01-19T21:48:19.614Z,100501.00
2023-01-19T21:50:46.097Z,100507.38
2023-01-19T21:53:12.545Z,100506.56
2023-01-19T21:55:43.570Z,100514.63
2023-01-19T21:58:09.917Z,100512.34
2023-01-19T22:00:36.286Z,100513.38
2023-01-19T22:03:04.423Z,100518.31
2023-01-19T22:05:36.783Z,100523.50
2023-01-19T22:08:04.343Z,100524.91
2023-01-19T22:10:30.781Z,100524.28
2023-01-19T22:12:57.138Z,100532.31
2023-01-19T22:15:23.573Z,100533.56
2023-01-19T22:17:49.933Z,100536.66
2023-01-19T22:20:16.556Z,100536.03
2023-01-19T22:22:42.915Z,100536.44
2023-01-19T22:25:09.652Z,100546.78
2023-01-19T22:27:37.408Z,100545.97
2023-01-19T22:30:04.040Z,100550.94
2023-01-19T22:32:31.293Z,100547.16
2023-01-19T22:34:57.628Z,100551.53
2023-01-19T22:37:23.975Z,100548.84
2023-01-19T22:39:50.393Z,100554.63
2023-01-19T22:42:16.786Z,100552.59
2023-01-19T22:44:43.517Z,100552.19
2023-01-19T22:47:10.111Z,100547.84
2023-01-19T22:49:36.614Z,100559.63
2023-01-19T22:52:03.100Z,100556.31
2023-01-19T22:54:30.310Z,100556.06
2023-01-19T22:56:56.690Z,100557.94
2023-01-19T22:59:23.036Z,100559.41
2023-01-19T23:01:50.020Z,100559.63
2023-01-19T23:04:16.633Z,100563.13
2023-01-19T23:06:43.649Z,100561.88
2023-01-19T23:09:12.731Z,100569.50
2023-01-19T23:11:41.619Z,100572.41
2023-01-19T23:14:12.274Z,100573.66
2023-01-19T23:16:38.782Z,100578.16
2023-01-19T23:19:05.486Z,100579.81
2023-01-19T23:21:32.450Z,100573.22
2023-01-19T23:24:01.655Z,100580.03
2023-01-19T23:26:30.707Z,100586.44
2023-01-19T23:28:59.527Z,100572.41
2023-01-19T23:31:27.215Z,100576.34
2023-01-19T23:33:56.733Z,100578.59
2023-01-19T23:36:25.972Z,100586.41
2023-01-19T23:39:04.953Z,100586.41
2023-01-19T23:41:34.511Z,100591.75
2023-01-19T23:44:01.471Z,100600.41
2023-01-19T23:46:28.684Z,100595.06
2023-01-19T23:48:55.498Z,100608.88
2023-01-19T23:51:24.853Z,100607.22
2023-01-19T23:53:51.842Z,100604.34
2023-01-19T23:56:20.985Z,100604.13
2023-01-19T23:58:52.074Z,100612.81
